Putnam Township, Michigan
Current Conditions -  °F | °C
As of 7:35 AM on Sunday 23 Nov 2014 (Local Time) from KOZW Reporting Station
Overcast Overcast  
Wind Chill: 41°   Ceiling: 4000
Heat Index: 46°   Visibility: 10mi
Dew Point: 43°   Wind: 9mph
Humidity: 92%   Direction: 190°S
Pressure: 29.88"   Gusts: NA
Location:  42.4646°N, 83.948°W
Report Text: KOZW 231235Z AUTO 19008KT 10SM SCT010 BKN040 OVC060 08/06 A2988 RMK AO2 T00750062
Loading
Personal Weather Stations






























Interactive Weather Map New forecast layout! Learn more

10-Day Weather Forecast

Advertisements
Track Severe Weather on mobile